createdAt,value
2019-05-29T00:00:02.889Z,72.32
2019-05-29T00:02:31.373Z,72.52
2019-05-29T00:04:59.874Z,72.27
2019-05-29T00:07:28.324Z,73.24
2019-05-29T00:09:56.778Z,73.51
2019-05-29T00:12:25.209Z,74.16
2019-05-29T00:14:53.724Z,74.66
2019-05-29T00:17:22.201Z,75.85
2019-05-29T00:19:50.628Z,76.06
2019-05-29T00:22:19.078Z,76.12
2019-05-29T00:24:47.567Z,76.51
2019-05-29T00:27:16.030Z,76.42
2019-05-29T00:29:44.446Z,77.35
2019-05-29T00:32:13.511Z,77.31
2019-05-29T00:34:43.356Z,78.05
2019-05-29T00:37:12.507Z,78.37
2019-05-29T00:39:41.261Z,78.55
2019-05-29T00:42:11.002Z,78.04
2019-05-29T00:44:40.378Z,78.31
2019-05-29T00:47:11.567Z,78.70
2019-05-29T00:49:40.083Z,78.18
2019-05-29T00:54:57.526Z,77.94
2019-05-29T00:57:25.926Z,78.94
2019-05-29T00:59:57.333Z,77.58
2019-05-29T01:02:25.763Z,78.99
2019-05-29T01:04:54.178Z,80.17
2019-05-29T01:07:22.616Z,78.51
2019-05-29T01:09:51.034Z,78.52
2019-05-29T01:12:19.473Z,78.59
2019-05-29T01:14:50.566Z,79.14
2019-05-29T01:17:19.794Z,77.62
2019-05-29T01:19:48.345Z,79.12
2019-05-29T01:22:16.774Z,80.15
2019-05-29T01:24:45.186Z,80.38
2019-05-29T01:27:15.085Z,80.39
2019-05-29T01:29:43.718Z,80.37
2019-05-29T01:32:15.505Z,80.69
2019-05-29T01:34:43.981Z,80.63
2019-05-29T01:37:12.438Z,80.68
2019-05-29T01:39:41.249Z,81.17
2019-05-29T01:42:09.675Z,80.87
2019-05-29T01:44:38.208Z,81.38
2019-05-29T01:47:06.623Z,81.61
2019-05-29T01:49:35.233Z,81.84
2019-05-29T01:52:03.586Z,81.58
2019-05-29T01:54:32.028Z,81.37
2019-05-29T01:57:00.516Z,81.22
2019-05-29T01:59:29.005Z,81.17
2019-05-29T02:01:57.422Z,81.16
2019-05-29T02:04:25.859Z,81.62
2019-05-29T02:06:54.288Z,81.42
2019-05-29T02:09:22.717Z,82.15
2019-05-29T02:11:51.140Z,82.16
2019-05-29T02:14:20.835Z,81.84
2019-05-29T02:16:49.182Z,82.24
2019-05-29T02:19:17.807Z,82.47
2019-05-29T02:21:47.724Z,83.59
2019-05-29T02:24:17.016Z,83.84
2019-05-29T02:26:45.509Z,84.06
2019-05-29T02:29:13.949Z,83.13
2019-05-29T02:31:42.479Z,83.20
2019-05-29T02:34:10.877Z,82.98
2019-05-29T02:36:39.340Z,84.03
2019-05-29T02:39:08.252Z,83.99
2019-05-29T02:41:38.708Z,83.68
2019-05-29T02:44:06.859Z,83.02
2019-05-29T02:46:35.315Z,82.54
2019-05-29T02:49:03.752Z,82.47
2019-05-29T02:51:32.173Z,82.35
2019-05-29T02:54:00.635Z,81.94
2019-05-29T02:56:29.609Z,82.14
2019-05-29T02:58:59.253Z,82.34
2019-05-29T03:01:28.298Z,82.18
2019-05-29T03:03:58.034Z,82.39
2019-05-29T03:06:30.270Z,82.68
2019-05-29T03:08:58.792Z,82.75
2019-05-29T03:11:29.185Z,84.49
2019-05-29T03:13:57.449Z,84.76
2019-05-29T03:16:26.697Z,84.31
2019-05-29T03:18:56.043Z,84.11
2019-05-29T03:21:26.099Z,84.69
2019-05-29T03:23:54.611Z,84.69
2019-05-29T03:26:25.240Z,84.00
2019-05-29T03:28:53.251Z,85.32
2019-05-29T03:31:21.744Z,83.64
2019-05-29T03:33:51.179Z,84.33
2019-05-29T03:36:20.011Z,83.88
2019-05-29T03:38:48.512Z,83.80
2019-05-29T03:41:16.898Z,84.05
2019-05-29T03:43:45.300Z,84.67
2019-05-29T03:46:30.205Z,84.63
2019-05-29T03:48:44.327Z,84.60
2019-05-29T03:51:12.858Z,84.68
2019-05-29T03:53:41.288Z,84.51
2019-05-29T03:56:09.714Z,84.29
2019-05-29T03:58:38.140Z,84.63
2019-05-29T04:01:06.614Z,84.64
2019-05-29T04:03:36.081Z,83.71
2019-05-29T04:06:07.263Z,84.16
2019-05-29T04:08:37.617Z,83.88
2019-05-29T04:11:05.965Z,83.81
2019-05-29T04:13:36.003Z,83.29
2019-05-29T04:16:04.693Z,84.52
2019-05-29T04:18:35.832Z,83.68
2019-05-29T04:21:04.603Z,83.87
2019-05-29T04:23:36.282Z,83.80
2019-05-29T04:26:05.006Z,83.55
2019-05-29T04:28:34.850Z,83.90
2019-05-29T04:31:03.803Z,84.09
2019-05-29T04:33:34.930Z,83.98
2019-05-29T04:36:06.987Z,83.38
2019-05-29T04:38:36.212Z,83.60
2019-05-29T04:41:05.691Z,83.93
2019-05-29T04:43:35.424Z,82.86
2019-05-29T04:46:04.461Z,83.36
2019-05-29T04:48:34.063Z,82.75
2019-05-29T04:51:05.462Z,82.76
2019-05-29T04:53:33.614Z,83.19
2019-05-29T04:56:02.790Z,82.58
2019-05-29T04:58:31.246Z,82.15
2019-05-29T05:00:59.801Z,82.27
2019-05-29T05:03:30.992Z,82.08
2019-05-29T05:05:59.623Z,82.38
2019-05-29T05:08:29.154Z,80.84
2019-05-29T05:10:57.904Z,80.33
2019-05-29T05:13:29.380Z,81.25
2019-05-29T05:16:01.728Z,81.80
2019-05-29T05:18:30.173Z,81.39
2019-05-29T05:20:59.811Z,81.41
2019-05-29T05:23:28.281Z,80.24
2019-05-29T05:25:56.841Z,80.64
2019-05-29T05:28:25.424Z,81.48
2019-05-29T05:30:55.312Z,81.60
2019-05-29T05:33:23.793Z,80.81
2019-05-29T05:35:52.220Z,81.47
2019-05-29T05:38:20.676Z,80.18
2019-05-29T05:40:50.735Z,80.57
2019-05-29T05:43:24.020Z,80.60
2019-05-29T05:45:49.360Z,79.85
2019-05-29T05:48:17.920Z,80.86
2019-05-29T05:50:46.394Z,79.07
2019-05-29T05:53:14.844Z,79.45
2019-05-29T05:55:43.266Z,78.65
2019-05-29T05:58:11.720Z,78.60
2019-05-29T06:00:40.188Z,78.45
2019-05-29T06:03:08.593Z,78.78
2019-05-29T06:05:38.232Z,78.05
2019-05-29T06:08:06.801Z,77.37
2019-05-29T06:10:38.102Z,77.20
2019-05-29T06:13:06.723Z,77.44
2019-05-29T06:15:36.410Z,78.55
2019-05-29T06:18:20.035Z,74.99
2019-05-29T06:20:35.142Z,72.90
2019-05-29T06:23:03.662Z,74.58
2019-05-29T06:25:33.905Z,72.72
2019-05-29T06:28:02.261Z,74.05
2019-05-29T06:30:30.696Z,76.00
2019-05-29T06:32:59.099Z,75.30
2019-05-29T06:35:27.633Z,74.11
2019-05-29T06:37:56.062Z,73.67
2019-05-29T06:40:40.162Z,71.17
2019-05-29T06:43:23.756Z,69.76
2019-05-29T06:45:52.769Z,70.00
2019-05-29T06:48:41.286Z,66.95
2019-05-29T06:50:57.580Z,69.53
2019-05-29T06:53:27.067Z,69.54
2019-05-29T06:55:56.850Z,69.10
2019-05-29T06:58:25.737Z,67.08
2019-05-29T07:00:54.169Z,64.61
2019-05-29T07:03:22.735Z,65.91
2019-05-29T07:05:52.862Z,65.42
2019-05-29T07:08:37.674Z,63.46
2019-05-29T07:10:53.205Z,61.06
2019-05-29T07:13:21.724Z,60.37
2019-05-29T07:15:50.114Z,60.28
2019-05-29T07:18:18.655Z,60.49
2019-05-29T07:20:47.119Z,60.04
2019-05-29T07:23:15.576Z,60.04
2019-05-29T07:25:45.452Z,57.74
2019-05-29T07:28:14.256Z,58.50
2019-05-29T07:30:48.359Z,58.40
2019-05-29T07:33:13.041Z,58.71
2019-05-29T07:35:43.593Z,56.51
2019-05-29T07:38:12.105Z,56.41
2019-05-29T07:40:42.420Z,55.87
2019-05-29T07:43:11.216Z,55.99
2019-05-29T07:45:40.586Z,57.88
2019-05-29T07:48:09.382Z,55.34
2019-05-29T07:50:40.082Z,59.10
2019-05-29T07:53:08.055Z,57.15
2019-05-29T07:55:36.464Z,57.22
2019-05-29T07:58:04.874Z,56.67
2019-05-29T08:00:35.697Z,56.25
2019-05-29T08:03:03.422Z,55.43
2019-05-29T08:05:31.864Z,56.66
2019-05-29T08:08:00.281Z,54.75
2019-05-29T08:10:28.702Z,53.78
2019-05-29T08:12:57.232Z,53.81
2019-05-29T08:15:25.667Z,51.96
2019-05-29T08:17:54.974Z,52.97
2019-05-29T08:20:23.414Z,50.66
2019-05-29T08:22:51.910Z,52.90
2019-05-29T08:25:20.375Z,51.71
2019-05-29T08:27:52.219Z,51.20
2019-05-29T08:30:19.379Z,51.60
2019-05-29T08:32:49.110Z,51.28
2019-05-29T08:35:17.891Z,49.97
2019-05-29T08:37:47.014Z,47.38
2019-05-29T08:40:15.852Z,46.89
2019-05-29T08:42:45.225Z,46.03
2019-05-29T08:45:15.805Z,46.53
2019-05-29T08:47:45.855Z,46.82
2019-05-29T08:50:18.951Z,47.59
2019-05-29T08:52:47.979Z,46.04
2019-05-29T08:55:16.910Z,44.87
2019-05-29T08:57:46.338Z,43.24
2019-05-29T09:00:16.841Z,43.26
2019-05-29T09:02:46.501Z,45.80
2019-05-29T09:05:18.404Z,44.95
2019-05-29T09:07:48.356Z,45.36
2019-05-29T09:10:18.018Z,43.15
2019-05-29T09:12:54.894Z,45.37
2019-05-29T09:15:21.342Z,45.07
2019-05-29T09:17:48.482Z,44.09
2019-05-29T09:20:32.132Z,45.35
2019-05-29T09:22:47.339Z,44.79
2019-05-29T09:25:18.976Z,44.58
2019-05-29T09:27:49.228Z,44.51
2019-05-29T09:30:19.686Z,42.12
2019-05-29T09:32:50.895Z,41.82
2019-05-29T09:35:22.041Z,42.90
2019-05-29T09:37:51.547Z,43.84
2019-05-29T09:40:21.101Z,42.18
2019-05-29T09:42:49.684Z,43.22
2019-05-29T09:45:19.526Z,42.77
2019-05-29T09:47:48.195Z,41.68
2019-05-29T09:50:18.681Z,42.57
2019-05-29T09:52:50.481Z,42.16
2019-05-29T09:55:20.585Z,41.84
2019-05-29T09:57:49.016Z,41.56
2019-05-29T10:00:17.967Z,42.82
2019-05-29T10:02:47.236Z,42.68
2019-05-29T10:05:15.742Z,41.47
2019-05-29T10:07:44.181Z,40.72
2019-05-29T10:10:15.865Z,40.72
2019-05-29T10:12:44.313Z,41.97
2019-05-29T10:15:14.945Z,42.91
2019-05-29T10:17:43.426Z,41.44
2019-05-29T10:20:14.190Z,41.82
2019-05-29T10:22:42.669Z,42.61
2019-05-29T10:25:12.761Z,42.59
2019-05-29T10:27:41.218Z,41.00
2019-05-29T10:30:10.119Z,40.10
2019-05-29T10:32:39.052Z,39.69
2019-05-29T10:35:08.073Z,42.67
2019-05-29T10:37:36.505Z,40.91
2019-05-29T10:40:10.013Z,39.65
2019-05-29T10:42:38.512Z,41.17
2019-05-29T10:45:11.628Z,41.76
2019-05-29T10:47:40.059Z,42.53
2019-05-29T10:50:10.512Z,43.87
2019-05-29T10:52:39.070Z,43.17
2019-05-29T10:55:08.545Z,42.33
2019-05-29T10:57:37.033Z,42.48
2019-05-29T11:00:08.492Z,43.90
2019-05-29T11:02:38.421Z,42.28
2019-05-29T11:05:06.906Z,43.02
2019-05-29T11:07:39.978Z,44.54
2019-05-29T11:10:13.340Z,43.22
2019-05-29T11:12:40.035Z,42.92
2019-05-29T11:15:20.866Z,42.34
2019-05-29T11:17:40.800Z,38.86
2019-05-29T11:20:26.253Z,37.90
2019-05-29T11:22:47.559Z,36.56
2019-05-29T11:25:22.384Z,37.16
2019-05-29T11:27:46.612Z,37.70
2019-05-29T11:30:15.633Z,37.95
2019-05-29T11:32:47.295Z,39.52
2019-05-29T11:35:16.085Z,38.69
2019-05-29T11:37:44.510Z,38.38
2019-05-29T11:40:13.348Z,39.67
2019-05-29T11:42:41.772Z,39.97
2019-05-29T11:45:11.536Z,42.07
2019-05-29T11:47:39.978Z,39.45
2019-05-29T11:50:19.523Z,37.38
2019-05-29T11:52:45.040Z,38.53
2019-05-29T11:55:16.844Z,38.21
2019-05-29T11:57:47.435Z,37.95
2019-05-29T12:00:20.195Z,35.92
2019-05-29T12:02:49.133Z,39.99
2019-05-29T12:05:17.995Z,35.37
2019-05-29T12:07:46.429Z,36.54
2019-05-29T12:10:15.576Z,37.21
2019-05-29T12:12:44.027Z,35.25
2019-05-29T12:15:17.194Z,35.17
2019-05-29T12:17:44.551Z,37.77
2019-05-29T12:20:27.183Z,40.41
2019-05-29T12:23:07.043Z,40.54
2019-05-29T12:25:14.151Z,40.08
2019-05-29T12:27:42.585Z,39.86
2019-05-29T12:30:12.547Z,39.39
2019-05-29T12:32:41.003Z,40.18
2019-05-29T12:35:09.966Z,41.46
2019-05-29T12:37:38.476Z,37.97
2019-05-29T12:40:08.613Z,33.77
2019-05-29T12:42:37.006Z,32.15
2019-05-29T12:45:09.430Z,30.98
2019-05-29T12:47:37.932Z,32.02
2019-05-29T12:50:14.477Z,27.16
2019-05-29T12:52:42.912Z,29.53
2019-05-29T12:55:13.253Z,30.31
2019-05-29T12:57:42.466Z,34.13
2019-05-29T13:00:12.752Z,31.74
2019-05-29T13:02:43.528Z,31.08
2019-05-29T13:05:20.226Z,30.34
2019-05-29T13:07:45.793Z,24.86
2019-05-29T13:10:29.372Z,24.69
2019-05-29T13:12:45.558Z,27.41
2019-05-29T13:15:16.416Z,29.17
2019-05-29T13:17:45.579Z,26.34
2019-05-29T13:20:21.715Z,25.35
2019-05-29T13:22:47.416Z,26.30
2019-05-29T13:25:16.229Z,30.44
2019-05-29T13:27:44.639Z,33.98
2019-05-29T13:30:14.389Z,32.15
2019-05-29T13:32:43.251Z,33.78
2019-05-29T13:35:12.071Z,35.80
2019-05-29T13:37:40.494Z,37.40
2019-05-29T13:40:11.251Z,37.22
2019-05-29T13:42:39.907Z,40.07
2019-05-29T13:45:17.941Z,38.34
2019-05-29T13:47:40.156Z,37.21
2019-05-29T13:50:12.135Z,38.15
2019-05-29T13:52:38.728Z,39.36
2019-05-29T13:55:07.946Z,38.40
2019-05-29T13:57:39.573Z,39.04
2019-05-29T14:00:30.292Z,36.48
2019-05-29T14:02:39.524Z,37.11
2019-05-29T14:05:08.804Z,38.08
2019-05-29T14:07:38.191Z,37.15
2019-05-29T14:10:09.707Z,35.79
2019-05-29T14:12:41.366Z,38.38
2019-05-29T14:15:12.426Z,36.74
2019-05-29T14:17:42.565Z,37.61
2019-05-29T14:20:11.369Z,37.79
2019-05-29T14:22:39.784Z,37.78
2019-05-29T14:25:11.536Z,37.75
2019-05-29T14:27:41.637Z,39.23
2019-05-29T14:30:14.021Z,36.00
2019-05-29T14:32:43.703Z,37.28
2019-05-29T14:35:13.388Z,37.36
2019-05-29T14:37:41.940Z,38.17
2019-05-29T14:40:12.064Z,37.50
2019-05-29T14:42:42.326Z,37.12
2019-05-29T14:45:12.586Z,36.97
2019-05-29T14:47:41.075Z,37.89
2019-05-29T14:50:13.239Z,37.51
2019-05-29T14:52:41.708Z,37.76
2019-05-29T14:55:16.155Z,36.67
2019-05-29T14:57:40.585Z,37.41
2019-05-29T15:00:22.843Z,37.24
2019-05-29T15:02:43.212Z,37.22
2019-05-29T15:05:12.865Z,35.97
2019-05-29T15:07:42.343Z,35.53
2019-05-29T15:10:26.258Z,36.74
2019-05-29T15:12:42.975Z,38.63
2019-05-29T15:15:17.857Z,36.03
2019-05-29T15:17:42.521Z,37.11
2019-05-29T15:20:12.570Z,35.86
2019-05-29T15:22:41.438Z,37.51
2019-05-29T15:25:21.824Z,37.60
2019-05-29T15:27:43.772Z,37.48
2019-05-29T15:30:22.088Z,36.60
2019-05-29T15:32:45.383Z,36.25
2019-05-29T15:35:18.454Z,36.48
2019-05-29T15:37:45.258Z,38.11
2019-05-29T15:40:14.983Z,37.69
2019-05-29T15:42:43.490Z,36.86
2019-05-29T15:45:14.139Z,37.03
2019-05-29T15:47:43.401Z,36.57
2019-05-29T15:50:13.604Z,36.73
2019-05-29T15:52:42.996Z,37.33
2019-05-29T15:55:29.492Z,37.48
2019-05-29T15:57:43.343Z,38.29
2019-05-29T16:00:13.766Z,38.72
2019-05-29T16:02:42.273Z,38.56
2019-05-29T16:05:15.416Z,38.54
2019-05-29T16:07:43.950Z,37.60
2019-05-29T16:10:16.884Z,37.65
2019-05-29T16:12:44.692Z,37.04
2019-05-29T16:15:13.495Z,37.70
2019-05-29T16:17:42.002Z,38.33
2019-05-29T16:20:12.314Z,37.73
2019-05-29T16:22:40.984Z,35.77
2019-05-29T16:25:10.794Z,35.61
2019-05-29T16:27:39.451Z,35.34
2019-05-29T16:30:13.692Z,36.20
2019-05-29T16:32:42.171Z,35.96
2019-05-29T16:35:11.189Z,36.29
2019-05-29T16:37:39.547Z,36.35
2019-05-29T16:40:14.148Z,36.53
2019-05-29T16:42:42.784Z,36.95
2019-05-29T16:45:12.586Z,37.02
2019-05-29T16:47:40.996Z,35.99
2019-05-29T16:50:12.827Z,36.18
2019-05-29T16:52:41.464Z,36.44
2019-05-29T16:55:10.945Z,36.72
2019-05-29T16:57:39.396Z,37.71
2019-05-29T17:00:13.663Z,37.97
2019-05-29T17:02:45.162Z,36.27
2019-05-29T17:05:13.978Z,36.64
2019-05-29T17:07:42.350Z,37.48
2019-05-29T17:10:11.105Z,38.01
2019-05-29T17:12:39.528Z,38.27
2019-05-29T17:15:10.295Z,37.65
2019-05-29T17:17:37.983Z,37.97
2019-05-29T17:20:08.253Z,37.39
2019-05-29T17:22:36.800Z,37.38
2019-05-29T17:25:07.197Z,37.46
2019-05-29T17:27:36.596Z,37.34
2019-05-29T17:30:09.533Z,37.95
2019-05-29T17:32:37.968Z,38.17
2019-05-29T17:35:08.594Z,36.79
2019-05-29T17:37:37.352Z,37.47
2019-05-29T17:40:07.919Z,37.17
2019-05-29T17:42:36.389Z,37.76
2019-05-29T17:45:07.813Z,37.60
2019-05-29T17:47:36.358Z,38.53
2019-05-29T17:50:11.353Z,38.71
2019-05-29T17:52:39.887Z,38.43
2019-05-29T17:55:09.496Z,38.27
2019-05-29T17:57:37.902Z,38.41
2019-05-29T18:00:13.574Z,37.94
2019-05-29T18:02:51.987Z,38.29
2019-05-29T18:05:13.525Z,38.94
2019-05-29T18:07:42.042Z,39.17
2019-05-29T18:10:11.899Z,38.95
2019-05-29T18:12:40.431Z,39.59
2019-05-29T18:15:10.296Z,38.86
2019-05-29T18:17:38.822Z,39.34
2019-05-29T18:20:08.129Z,39.69
2019-05-29T18:22:36.549Z,40.36
2019-05-29T18:25:09.001Z,40.32
2019-05-29T18:27:37.442Z,40.38
2019-05-29T18:30:08.449Z,40.91
2019-05-29T18:32:37.500Z,41.01
2019-05-29T18:35:07.816Z,41.12
2019-05-29T18:37:36.360Z,41.35
2019-05-29T18:40:12.297Z,41.56
2019-05-29T18:42:38.382Z,42.35
2019-05-29T18:45:19.613Z,41.99
2019-05-29T18:47:39.574Z,42.34
2019-05-29T18:50:10.483Z,42.05
2019-05-29T18:52:39.973Z,42.52
2019-05-29T18:55:08.974Z,42.51
2019-05-29T18:57:37.427Z,42.81
2019-05-29T19:00:07.744Z,42.99
2019-05-29T19:02:36.177Z,42.88
2019-05-29T19:05:08.058Z,43.95
2019-05-29T19:07:36.450Z,43.57
2019-05-29T19:10:07.306Z,43.52
2019-05-29T19:12:35.075Z,44.33
2019-05-29T19:15:04.805Z,44.09
2019-05-29T19:17:33.203Z,44.53
2019-05-29T19:20:03.417Z,44.66
2019-05-29T19:22:32.695Z,44.81
2019-05-29T19:25:01.375Z,45.05
2019-05-29T19:27:37.450Z,45.37
2019-05-29T19:30:00.024Z,45.68
2019-05-29T19:32:29.310Z,46.51
2019-05-29T19:34:57.943Z,46.13
2019-05-29T19:37:26.377Z,46.25
2019-05-29T19:39:54.851Z,46.94
2019-05-29T19:42:24.053Z,47.43
2019-05-29T19:44:52.648Z,47.27
2019-05-29T19:47:21.155Z,47.49
2019-05-29T19:49:49.651Z,48.02
2019-05-29T19:52:18.171Z,47.88
2019-05-29T19:54:46.663Z,48.65
2019-05-29T19:57:15.122Z,48.10
2019-05-29T19:59:43.739Z,48.12
2019-05-29T20:02:12.207Z,48.15
2019-05-29T20:04:42.170Z,48.15
2019-05-29T20:07:10.618Z,48.29
2019-05-29T20:09:39.098Z,48.14
2019-05-29T20:12:07.601Z,47.76
2019-05-29T20:14:40.898Z,47.89
2019-05-29T20:17:09.078Z,47.33
2019-05-29T20:19:40.780Z,47.68
2019-05-29T20:22:07.748Z,47.51
2019-05-29T20:24:36.910Z,47.42
2019-05-29T20:27:06.747Z,48.05
2019-05-29T20:29:36.369Z,48.38
2019-05-29T20:32:05.057Z,47.90
2019-05-29T20:34:34.645Z,48.33
2019-05-29T20:37:03.204Z,48.65
2019-05-29T20:39:32.856Z,49.16
2019-05-29T20:42:01.518Z,48.98
2019-05-29T20:44:32.620Z,49.01
2019-05-29T20:47:00.183Z,49.38
2019-05-29T20:49:28.666Z,49.18
2019-05-29T20:51:57.175Z,49.61
2019-05-29T20:54:27.646Z,49.74
2019-05-29T20:56:59.424Z,50.21
2019-05-29T20:59:29.525Z,50.21
2019-05-29T21:02:00.367Z,50.59
2019-05-29T21:04:28.434Z,50.50
2019-05-29T21:06:56.965Z,50.82
2019-05-29T21:09:25.507Z,51.43
2019-05-29T21:11:55.433Z,51.25
2019-05-29T21:14:23.917Z,51.41
2019-05-29T21:16:52.330Z,51.90
2019-05-29T21:19:20.786Z,52.15
2019-05-29T21:21:49.203Z,52.26
2019-05-29T21:24:17.623Z,52.47
2019-05-29T21:26:46.041Z,52.48
2019-05-29T21:29:14.459Z,52.66
2019-05-29T21:31:43.715Z,52.99
2019-05-29T21:34:13.762Z,53.20
2019-05-29T21:36:42.429Z,53.45
2019-05-29T21:39:10.974Z,53.51
2019-05-29T21:41:40.425Z,54.23
2019-05-29T21:44:09.163Z,54.01
2019-05-29T21:46:38.826Z,54.61
2019-05-29T21:49:07.557Z,54.91
2019-05-29T21:51:37.292Z,55.00
2019-05-29T21:54:06.062Z,55.83
2019-05-29T21:56:37.443Z,55.72
2019-05-29T21:59:06.226Z,56.12
2019-05-29T22:01:35.080Z,56.39
2019-05-29T22:04:03.626Z,56.25
2019-05-29T22:06:33.708Z,57.19
2019-05-29T22:09:02.198Z,56.70
2019-05-29T22:11:30.679Z,56.85
2019-05-29T22:13:59.143Z,56.87
2019-05-29T22:16:27.723Z,56.98
2019-05-29T22:18:57.029Z,57.12
2019-05-29T22:21:26.415Z,57.33
2019-05-29T22:23:57.103Z,57.47
2019-05-29T22:26:27.794Z,57.21
2019-05-29T22:28:58.584Z,56.58
2019-05-29T22:31:26.541Z,56.87
2019-05-29T22:33:59.607Z,56.73
2019-05-29T22:36:28.091Z,57.01
2019-05-29T22:38:57.474Z,57.26
2019-05-29T22:41:25.984Z,57.33
2019-05-29T22:43:55.982Z,57.23
2019-05-29T22:46:24.492Z,57.45
2019-05-29T22:48:53.690Z,58.11
2019-05-29T22:51:23.707Z,57.63
2019-05-29T22:53:52.767Z,57.81
2019-05-29T22:56:22.489Z,57.74
2019-05-29T22:58:52.033Z,57.67
2019-05-29T23:01:20.579Z,57.47
2019-05-29T23:03:49.122Z,57.32
2019-05-29T23:06:19.472Z,57.40
2019-05-29T23:08:47.940Z,57.63
2019-05-29T23:11:16.504Z,57.50
2019-05-29T23:13:45.031Z,57.33
2019-05-29T23:16:13.508Z,57.59
2019-05-29T23:18:41.971Z,57.68
2019-05-29T23:21:10.552Z,57.63
2019-05-29T23:23:39.061Z,57.28
2019-05-29T23:26:07.586Z,57.65
2019-05-29T23:28:36.096Z,57.06
2019-05-29T23:31:05.104Z,56.70
2019-05-29T23:33:33.649Z,56.67
2019-05-29T23:36:03.249Z,56.79
2019-05-29T23:38:31.814Z,56.88
2019-05-29T23:41:01.548Z,56.72
2019-05-29T23:43:32.630Z,56.69
2019-05-29T23:46:02.414Z,56.46
2019-05-29T23:48:32.919Z,56.67
2019-05-29T23:51:03.839Z,56.74
2019-05-29T23:53:32.332Z,56.61
2019-05-29T23:56:01.838Z,56.74
2019-05-29T23:58:30.474Z,56.47
